createdAt,value
2022-09-23T00:01:14.735Z,101963.53
2022-09-23T00:03:43.100Z,101954.44
2022-09-23T00:06:15.098Z,101942.41
2022-09-23T00:08:42.341Z,101948.84
2022-09-23T00:11:11.109Z,101956.00
2022-09-23T00:13:39.358Z,101944.94
2022-09-23T00:16:07.430Z,101947.94
2022-09-23T00:18:34.848Z,101948.63
2022-09-23T00:21:06.351Z,101942.28
2022-09-23T00:23:33.788Z,101943.00
2022-09-23T00:26:01.660Z,101950.16
2022-09-23T00:28:29.325Z,101946.09
2022-09-23T00:30:56.554Z,101951.78
2022-09-23T00:33:23.976Z,101945.94
2022-09-23T00:35:51.350Z,101946.31
2022-09-23T00:38:18.770Z,101949.28
2022-09-23T00:40:46.376Z,101943.72
2022-09-23T00:43:15.006Z,101940.28
2022-09-23T00:45:46.813Z,101944.44
2022-09-23T00:48:20.089Z,101935.72
2022-09-23T00:50:53.557Z,101943.94
2022-09-23T00:53:22.868Z,101932.69
2022-09-23T00:55:56.579Z,101940.13
2022-09-23T00:58:26.893Z,101934.84
2022-09-23T01:00:54.913Z,101936.56
2022-09-23T01:03:23.023Z,101938.41
2022-09-23T01:05:50.466Z,101941.59
2022-09-23T01:08:18.291Z,101938.22
2022-09-23T01:10:52.540Z,101937.66
2022-09-23T01:13:32.457Z,101932.72
2022-09-23T01:16:13.914Z,101930.28
2022-09-23T01:18:57.280Z,101932.81
2022-09-23T01:21:24.721Z,101928.81
2022-09-23T01:23:52.917Z,101930.31
2022-09-23T01:26:38.623Z,101927.09
2022-09-23T01:29:17.899Z,101924.03
2022-09-23T01:31:57.146Z,101928.16
2022-09-23T01:34:44.467Z,101923.72
2022-09-23T01:37:21.190Z,101925.31
2022-09-23T01:39:55.899Z,101921.00
2022-09-23T01:42:30.621Z,101921.53
2022-09-23T01:45:14.108Z,101918.34
2022-09-23T01:47:56.105Z,101920.22
2022-09-23T01:50:47.464Z,101922.97
2022-09-23T01:53:28.412Z,101923.84
2022-09-23T01:55:57.906Z,101928.63
2022-09-23T01:58:37.325Z,101929.47
2022-09-23T02:01:07.276Z,101926.31
2022-09-23T02:03:42.179Z,101922.94
2022-09-23T02:06:15.534Z,101925.53
2022-09-23T02:09:01.418Z,101922.75
2022-09-23T02:11:29.240Z,101914.38
2022-09-23T02:13:59.030Z,101916.69
2022-09-23T02:16:52.839Z,101917.97
2022-09-23T02:19:32.037Z,101919.69
2022-09-23T02:22:12.939Z,101915.09
2022-09-23T02:24:40.345Z,101923.31
2022-09-23T02:27:14.601Z,101922.50
2022-09-23T02:29:45.040Z,101924.88
2022-09-23T02:32:19.854Z,101923.91
2022-09-23T02:34:53.558Z,101911.19
2022-09-23T02:37:26.753Z,101921.84
2022-09-23T02:39:56.892Z,101913.16
2022-09-23T02:42:29.084Z,101914.22
2022-09-23T02:44:56.510Z,101908.41
2022-09-23T02:47:27.573Z,101910.97
2022-09-23T02:49:56.435Z,101911.00
2022-09-23T02:52:25.056Z,101904.03
2022-09-23T02:54:52.707Z,101906.66
2022-09-23T02:57:19.981Z,101906.75
2022-09-23T02:59:47.256Z,101905.38
2022-09-23T03:02:21.825Z,101907.19
2022-09-23T03:04:58.652Z,101903.06
2022-09-23T03:07:36.052Z,101897.75
2022-09-23T03:10:17.788Z,101902.09
2022-09-23T03:12:54.241Z,101898.09
2022-09-23T03:15:25.241Z,101888.88
2022-09-23T03:18:11.829Z,101893.91
2022-09-23T03:20:49.574Z,101890.63
2022-09-23T03:23:19.404Z,101889.75
2022-09-23T03:25:49.001Z,101880.22
2022-09-23T03:28:17.649Z,101885.19
2022-09-23T03:30:45.359Z,101885.25
2022-09-23T03:33:16.802Z,101888.88
2022-09-23T03:36:10.993Z,101885.63
2022-09-23T03:38:41.883Z,101876.53
2022-09-23T03:41:12.082Z,101876.53
2022-09-23T03:43:39.372Z,101870.00
2022-09-23T03:46:08.300Z,101866.53
2022-09-23T03:48:35.678Z,101872.41
2022-09-23T03:51:13.804Z,101868.28
2022-09-23T03:53:41.343Z,101862.66
2022-09-23T03:56:08.476Z,101854.38
2022-09-23T03:58:35.637Z,101855.78
2022-09-23T04:01:02.919Z,101869.44
2022-09-23T04:03:30.351Z,101866.56
2022-09-23T04:05:57.515Z,101865.47
2022-09-23T04:08:24.818Z,101856.09
2022-09-23T04:10:54.839Z,101848.78
2022-09-23T04:13:22.216Z,101850.84
2022-09-23T04:15:50.130Z,101850.13
2022-09-23T04:18:17.373Z,101853.56
2022-09-23T04:20:44.620Z,101859.41
2022-09-23T04:23:11.861Z,101856.31
2022-09-23T04:25:48.864Z,101851.34
2022-09-23T04:28:16.419Z,101848.28
2022-09-23T04:30:44.357Z,101850.28
2022-09-23T04:33:12.318Z,101840.50
2022-09-23T04:35:40.561Z,101839.81
2022-09-23T04:38:08.273Z,101836.78
2022-09-23T04:40:36.001Z,101844.47
2022-09-23T04:43:03.348Z,101847.22
2022-09-23T04:45:30.597Z,101846.78
2022-09-23T04:47:58.515Z,101842.78
2022-09-23T04:50:26.456Z,101844.34
2022-09-23T04:52:54.217Z,101838.84
2022-09-23T04:55:22.200Z,101837.88
2022-09-23T04:57:49.533Z,101843.94
2022-09-23T05:00:16.810Z,101845.03
2022-09-23T05:02:48.218Z,101841.34
2022-09-23T05:05:21.311Z,101847.00
2022-09-23T05:07:48.715Z,101844.16
2022-09-23T05:10:15.981Z,101845.66
2022-09-23T05:12:43.334Z,101847.97
2022-09-23T05:15:10.532Z,101850.00
2022-09-23T05:17:37.787Z,101834.41
2022-09-23T05:20:05.211Z,101840.28
2022-09-23T05:22:32.503Z,101841.53
2022-09-23T05:25:01.641Z,101837.66
2022-09-23T05:27:29.195Z,101828.97
2022-09-23T05:29:56.351Z,101831.00
2022-09-23T05:32:23.660Z,101837.00
2022-09-23T05:34:51.062Z,101840.88
2022-09-23T05:37:18.256Z,101842.22
2022-09-23T05:39:45.430Z,101842.91
2022-09-23T05:42:12.749Z,101842.63
2022-09-23T05:44:40.049Z,101841.97
2022-09-23T05:47:07.580Z,101841.41
2022-09-23T05:49:55.623Z,101844.88
2022-09-23T05:52:24.140Z,101843.28
2022-09-23T05:54:51.400Z,101827.47
2022-09-23T05:57:19.080Z,101846.78
2022-09-23T05:59:47.794Z,101847.84
2022-09-23T06:02:15.458Z,101855.50
2022-09-23T06:04:43.159Z,101851.63
2022-09-23T06:07:10.500Z,101849.47
2022-09-23T06:09:37.821Z,101846.84
2022-09-23T06:12:05.233Z,101854.22
2022-09-23T06:14:32.388Z,101852.47
2022-09-23T06:16:59.648Z,101851.19
2022-09-23T06:19:26.896Z,101853.16
2022-09-23T06:21:54.573Z,101862.13
2022-09-23T06:24:25.993Z,101865.06
2022-09-23T06:26:56.040Z,101849.44
2022-09-23T06:29:23.565Z,101853.09
2022-09-23T06:31:50.808Z,101847.63
2022-09-23T06:34:19.380Z,101829.44
2022-09-23T06:36:47.171Z,101852.47
2022-09-23T06:39:15.046Z,101843.50
2022-09-23T06:41:42.312Z,101843.47
2022-09-23T06:44:13.343Z,101848.56
2022-09-23T06:46:40.874Z,101843.28
2022-09-23T06:49:08.127Z,101848.13
2022-09-23T06:51:35.436Z,101855.72
2022-09-23T06:54:02.768Z,101855.94
2022-09-23T06:56:32.547Z,101850.19
2022-09-23T06:59:03.488Z,101845.94
2022-09-23T07:01:30.745Z,101850.63
2022-09-23T07:03:58.062Z,101855.94
2022-09-23T07:06:25.300Z,101858.03
2022-09-23T07:08:53.253Z,101858.56
2022-09-23T07:11:22.693Z,101861.81
2022-09-23T07:13:50.085Z,101859.00
2022-09-23T07:16:17.432Z,101849.16
2022-09-23T07:18:45.136Z,101858.13
2022-09-23T07:21:17.191Z,101851.72
2022-09-23T07:23:46.073Z,101847.16
2022-09-23T07:26:13.984Z,101858.56
2022-09-23T07:28:41.448Z,101840.75
2022-09-23T07:31:12.979Z,101836.38
2022-09-23T07:33:44.611Z,101837.28
2022-09-23T07:36:17.359Z,101845.31
2022-09-23T07:38:45.903Z,101834.69
2022-09-23T07:41:14.786Z,101831.44
2022-09-23T07:43:42.042Z,101827.00
2022-09-23T07:46:11.170Z,101826.78
2022-09-23T07:48:38.839Z,101821.53
2022-09-23T07:51:07.393Z,101827.66
2022-09-23T07:53:34.705Z,101820.44
2022-09-23T07:56:04.578Z,101821.63
2022-09-23T07:58:32.520Z,101823.25
2022-09-23T08:01:08.154Z,101817.94
2022-09-23T08:03:36.498Z,101818.63
2022-09-23T08:06:10.917Z,101828.22
2022-09-23T08:08:40.758Z,101828.75
2022-09-23T08:11:10.063Z,101822.47
2022-09-23T08:13:37.698Z,101821.97
2022-09-23T08:16:05.339Z,101816.84
2022-09-23T08:18:32.985Z,101813.91
2022-09-23T08:21:00.187Z,101813.34
2022-09-23T08:23:27.867Z,101802.06
2022-09-23T08:26:00.151Z,101807.72
2022-09-23T08:28:27.562Z,101804.75
2022-09-23T08:30:55.123Z,101800.97
2022-09-23T08:33:23.817Z,101798.56
2022-09-23T08:35:51.515Z,101804.06
2022-09-23T08:38:19.411Z,101795.97
2022-09-23T08:40:49.008Z,101781.78
2022-09-23T08:43:32.922Z,101793.19
2022-09-23T08:46:04.794Z,101797.91
2022-09-23T08:48:37.500Z,101792.47
2022-09-23T08:51:06.473Z,101791.84
2022-09-23T08:53:37.039Z,101781.41
2022-09-23T08:56:07.325Z,101787.25
2022-09-23T08:58:35.236Z,101780.38
2022-09-23T09:01:21.330Z,101789.66
2022-09-23T09:03:53.898Z,101791.63
2022-09-23T09:06:31.112Z,101790.06
2022-09-23T09:09:01.031Z,101788.25
2022-09-23T09:11:37.170Z,101780.50
2022-09-23T09:14:18.988Z,101778.06
2022-09-23T09:17:06.218Z,101775.56
2022-09-23T09:19:42.738Z,101765.34
2022-09-23T09:22:14.366Z,101774.97
2022-09-23T09:24:45.697Z,101772.69
2022-09-23T09:27:13.368Z,101770.94
2022-09-23T09:29:49.771Z,101770.63
2022-09-23T09:32:33.789Z,101780.56
2022-09-23T09:35:05.704Z,101772.50
2022-09-23T09:37:33.716Z,101771.38
2022-09-23T09:40:01.072Z,101768.22
2022-09-23T09:42:37.481Z,101768.28
2022-09-23T09:45:11.280Z,101764.72
2022-09-23T09:47:51.664Z,101773.09
2022-09-23T09:50:39.039Z,101775.59
2022-09-23T09:53:16.585Z,101777.41
2022-09-23T09:55:44.467Z,101773.59
2022-09-23T09:58:16.445Z,101773.00
2022-09-23T10:00:45.748Z,101779.16
2022-09-23T10:03:13.381Z,101773.53
2022-09-23T10:05:46.811Z,101771.34
2022-09-23T10:08:32.314Z,101764.09
2022-09-23T10:10:59.564Z,101761.16
2022-09-23T10:13:27.344Z,101757.41
2022-09-23T10:15:55.124Z,101761.78
2022-09-23T10:18:22.271Z,101759.38
2022-09-23T10:20:49.518Z,101759.38
2022-09-23T10:23:21.863Z,101756.44
2022-09-23T10:26:00.225Z,101759.44
2022-09-23T10:28:32.242Z,101754.75
2022-09-23T10:31:07.657Z,101749.59
2022-09-23T10:33:39.779Z,101750.25
2022-09-23T10:36:10.671Z,101743.34
2022-09-23T10:38:37.944Z,101744.88
2022-09-23T10:41:24.255Z,101751.38
2022-09-23T10:44:06.943Z,101748.81
2022-09-23T10:46:39.120Z,101744.19
2022-09-23T10:49:10.181Z,101747.09
2022-09-23T10:51:45.011Z,101738.50
2022-09-23T10:54:25.748Z,101748.56
2022-09-23T10:57:02.295Z,101743.38
2022-09-23T10:59:43.554Z,101739.13
2022-09-23T11:02:23.229Z,101749.38
2022-09-23T11:04:54.762Z,101750.56
2022-09-23T11:07:22.011Z,101751.38
2022-09-23T11:09:49.236Z,101742.69
2022-09-23T11:12:29.552Z,101739.69
2022-09-23T11:15:00.174Z,101748.47
2022-09-23T11:17:36.548Z,101740.72
2022-09-23T11:20:03.767Z,101751.81
2022-09-23T11:22:38.002Z,101745.19
2022-09-23T11:25:08.471Z,101743.84
2022-09-23T11:27:38.672Z,101730.38
2022-09-23T11:30:12.708Z,101737.06
2022-09-23T11:32:51.904Z,101736.16
2022-09-23T11:35:22.473Z,101736.69
2022-09-23T11:37:55.441Z,101740.03
2022-09-23T11:40:33.711Z,101732.88
2022-09-23T11:43:24.499Z,101728.81
2022-09-23T11:45:58.022Z,101737.31
2022-09-23T11:48:30.118Z,101738.94
2022-09-23T11:51:00.628Z,101741.66
2022-09-23T11:53:36.616Z,101737.97
2022-09-23T11:56:07.681Z,101728.63
2022-09-23T11:58:44.392Z,101735.03
2022-09-23T12:01:38.554Z,101726.19
2022-09-23T12:04:19.794Z,101731.66
2022-09-23T12:06:52.740Z,101726.91
2022-09-23T12:09:53.990Z,101724.75
2022-09-23T12:12:26.969Z,101729.16
2022-09-23T12:15:00.345Z,101718.78
2022-09-23T12:17:43.283Z,101732.25
2022-09-23T12:20:19.552Z,101718.28
2022-09-23T12:22:47.537Z,101721.28
2022-09-23T12:25:20.804Z,101720.41
2022-09-23T12:27:50.483Z,101720.75
2022-09-23T12:30:22.211Z,101720.03
2022-09-23T12:32:49.793Z,101718.69
2022-09-23T12:35:32.263Z,101715.03
2022-09-23T12:38:01.249Z,101716.94
2022-09-23T12:40:43.963Z,101710.31
2022-09-23T12:43:29.856Z,101709.31
2022-09-23T12:46:16.674Z,101708.75
2022-09-23T12:48:45.911Z,101704.47
2022-09-23T12:51:16.332Z,101703.41
2022-09-23T12:53:57.667Z,101699.22
2022-09-23T12:56:47.701Z,101690.63
2022-09-23T12:59:24.006Z,101703.34
2022-09-23T13:01:51.504Z,101699.66
2022-09-23T13:04:52.535Z,101693.88
2022-09-23T13:07:27.227Z,101686.59
2022-09-23T13:10:03.227Z,101685.44
2022-09-23T13:12:34.754Z,101690.31
2022-09-23T13:15:05.755Z,101688.56
2022-09-23T13:17:36.028Z,101677.31
2022-09-23T13:20:06.413Z,101679.44
2022-09-23T13:22:48.869Z,101683.13
2022-09-23T13:29:00.186Z,101661.38
2022-09-23T13:31:27.484Z,101666.41
2022-09-23T13:33:59.763Z,101665.09
2022-09-23T13:36:27.105Z,101667.34
2022-09-23T13:39:13.111Z,101667.22
2022-09-23T13:41:41.701Z,101663.00
2022-09-23T13:44:13.586Z,101658.97
2022-09-23T13:46:45.934Z,101662.28
2022-09-23T13:49:24.446Z,101659.75
2022-09-23T13:51:54.268Z,101664.19
2022-09-23T13:54:29.086Z,101660.72
2022-09-23T13:56:56.803Z,101658.50
2022-09-23T13:59:26.069Z,101657.63
2022-09-23T14:02:04.356Z,101654.53
2022-09-23T14:04:31.821Z,101655.75
2022-09-23T14:06:59.260Z,101646.28
2022-09-23T14:09:29.227Z,101648.19
2022-09-23T14:12:00.645Z,101651.34
2022-09-23T14:14:29.002Z,101653.06
2022-09-23T14:16:57.096Z,101644.00
2022-09-23T14:19:25.783Z,101642.91
2022-09-23T14:21:54.287Z,101645.16
2022-09-23T14:24:21.594Z,101642.91
2022-09-23T14:26:52.020Z,101641.66
2022-09-23T14:29:39.566Z,101641.13
2022-09-23T14:32:11.131Z,101641.41
2022-09-23T14:34:50.029Z,101629.59
2022-09-23T14:37:48.294Z,101633.31
2022-09-23T14:40:19.792Z,101638.69
2022-09-23T14:42:52.180Z,101636.94
2022-09-23T14:45:21.771Z,101631.94
2022-09-23T14:47:51.533Z,101636.94
2022-09-23T14:50:39.488Z,101633.75
2022-09-23T14:53:27.022Z,101640.59
2022-09-23T14:55:58.950Z,101638.66
2022-09-23T14:58:31.238Z,101639.00
2022-09-23T15:01:00.407Z,101634.88
2022-09-23T15:03:28.501Z,101634.47
2022-09-23T15:06:07.732Z,101632.94
2022-09-23T15:08:36.039Z,101625.19
2022-09-23T15:11:07.837Z,101629.56
2022-09-23T15:13:40.680Z,101633.59
2022-09-23T15:16:08.192Z,101625.09
2022-09-23T15:18:41.602Z,101620.63
2022-09-23T15:21:10.015Z,101622.59
2022-09-23T15:23:41.557Z,101626.09
2022-09-23T15:26:19.185Z,101623.34
2022-09-23T15:28:47.065Z,101620.06
2022-09-23T15:31:16.036Z,101619.25
2022-09-23T15:33:47.613Z,101624.97
2022-09-23T15:36:17.513Z,101616.91
2022-09-23T15:38:45.163Z,101614.72
2022-09-23T15:41:14.387Z,101616.69
2022-09-23T15:43:41.991Z,101609.25
2022-09-23T15:46:14.185Z,101612.88
2022-09-23T15:48:43.754Z,101602.34
2022-09-23T15:51:14.280Z,101617.56
2022-09-23T15:53:41.469Z,101614.22
2022-09-23T15:56:08.785Z,101608.19
2022-09-23T15:58:36.665Z,101605.41
2022-09-23T16:01:04.175Z,101601.72
2022-09-23T16:03:31.583Z,101606.00
2022-09-23T16:06:01.250Z,101606.00
2022-09-23T16:08:29.229Z,101610.84
2022-09-23T16:10:56.605Z,101603.47
2022-09-23T16:13:23.944Z,101602.25
2022-09-23T16:15:51.150Z,101605.41
2022-09-23T16:18:18.395Z,101600.97
2022-09-23T16:20:46.469Z,101606.13
2022-09-23T16:23:34.311Z,101606.38
2022-09-23T16:26:03.224Z,101598.31
2022-09-23T16:28:30.453Z,101608.66
2022-09-23T16:30:57.844Z,101599.06
2022-09-23T16:33:25.049Z,101604.97
2022-09-23T16:35:52.574Z,101600.28
2022-09-23T16:38:21.125Z,101605.41
2022-09-23T16:40:48.565Z,101601.28
2022-09-23T16:43:16.009Z,101609.16
2022-09-23T16:45:43.447Z,101606.44
2022-09-23T16:48:11.509Z,101600.09
2022-09-23T16:50:39.549Z,101597.00
2022-09-23T16:53:06.693Z,101598.81
2022-09-23T16:55:33.896Z,101595.53
2022-09-23T16:58:01.095Z,101595.75
2022-09-23T17:00:46.816Z,101588.78
2022-09-23T17:03:32.422Z,101597.00
2022-09-23T17:06:03.415Z,101592.06
2022-09-23T17:08:33.378Z,101585.75
2022-09-23T17:11:00.959Z,101587.44
2022-09-23T17:13:28.459Z,101590.66
2022-09-23T17:15:55.798Z,101595.97
2022-09-23T17:18:23.353Z,101591.03
2022-09-23T17:20:57.994Z,101595.19
2022-09-23T17:23:26.519Z,101590.38
2022-09-23T17:25:54.072Z,101590.31
2022-09-23T17:28:21.408Z,101585.72
2022-09-23T17:30:50.641Z,101587.19
2022-09-23T17:33:19.960Z,101587.22
2022-09-23T17:35:47.147Z,101589.72
2022-09-23T17:38:14.394Z,101588.69
2022-09-23T17:40:42.126Z,101590.97
2022-09-23T17:43:09.440Z,101593.22
2022-09-23T17:45:37.272Z,101597.31
2022-09-23T17:48:04.521Z,101593.31
2022-09-23T17:50:31.870Z,101598.03
2022-09-23T17:53:00.465Z,101606.00
2022-09-23T17:55:27.762Z,101601.41
2022-09-23T17:57:54.943Z,101598.44
2022-09-23T18:00:22.243Z,101604.41
2022-09-23T18:02:52.512Z,101597.31
2022-09-23T18:05:19.803Z,101593.84
2022-09-23T18:07:47.067Z,101589.41
2022-09-23T18:10:14.383Z,101599.66
2022-09-23T18:12:41.549Z,101597.50
2022-09-23T18:15:09.027Z,101592.28
2022-09-23T18:17:36.215Z,101593.94
2022-09-23T18:20:03.665Z,101592.38
2022-09-23T18:22:30.881Z,101592.16
2022-09-23T18:24:58.941Z,101594.56
2022-09-23T18:27:26.625Z,101596.38
2022-09-23T18:29:54.005Z,101591.13
2022-09-23T18:32:21.181Z,101597.38
2022-09-23T18:34:48.503Z,101595.13
2022-09-23T18:37:16.396Z,101602.22
2022-09-23T18:39:43.759Z,101599.53
2022-09-23T18:42:12.423Z,101596.31
2022-09-23T18:44:40.773Z,101599.84
2022-09-23T18:47:08.037Z,101593.53
2022-09-23T18:49:53.704Z,101592.06
2022-09-23T18:52:21.132Z,101599.88
2022-09-23T18:54:50.790Z,101594.06
2022-09-23T18:57:21.610Z,101588.19
2022-09-23T18:59:48.767Z,101588.44
2022-09-23T19:02:17.054Z,101589.81
2022-09-23T19:04:44.286Z,101590.56
2022-09-23T19:07:11.947Z,101584.25
2022-09-23T19:09:39.125Z,101592.13
2022-09-23T19:12:06.490Z,101587.03
2022-09-23T19:14:33.867Z,101587.66
2022-09-23T19:17:01.269Z,101590.88
2022-09-23T19:19:30.174Z,101594.81
2022-09-23T19:21:57.463Z,101592.97
2022-09-23T19:24:24.647Z,101595.53
2022-09-23T19:26:54.049Z,101584.44
2022-09-23T19:29:21.929Z,101591.84
2022-09-23T19:31:49.384Z,101591.84
2022-09-23T19:34:18.088Z,101595.53
2022-09-23T19:36:46.653Z,101595.06
2022-09-23T19:39:17.400Z,101594.81
2022-09-23T19:41:45.056Z,101600.34
2022-09-23T19:44:12.469Z,101602.00
2022-09-23T19:46:42.885Z,101603.16
2022-09-23T19:49:11.424Z,101603.16
2022-09-23T19:51:39.158Z,101604.88
2022-09-23T19:54:07.307Z,101605.50
2022-09-23T19:56:34.753Z,101603.06
2022-09-23T19:59:03.143Z,101607.03
2022-09-23T20:01:30.574Z,101599.66
2022-09-23T20:03:58.018Z,101608.97
2022-09-23T20:06:25.308Z,101600.97
2022-09-23T20:08:53.065Z,101601.66
2022-09-23T20:11:24.792Z,101599.22
2022-09-23T20:14:01.009Z,101591.34
2022-09-23T20:16:32.169Z,101594.25
2022-09-23T20:19:00.442Z,101596.25
2022-09-23T20:21:29.215Z,101595.13
2022-09-23T20:23:57.269Z,101598.97
2022-09-23T20:26:43.163Z,101597.50
2022-09-23T20:29:11.128Z,101600.97
2022-09-23T20:31:40.462Z,101593.94
2022-09-23T20:34:08.507Z,101591.25
2022-09-23T20:36:36.173Z,101594.44
2022-09-23T20:39:05.979Z,101595.53
2022-09-23T20:41:37.353Z,101594.25
2022-09-23T20:44:11.636Z,101595.72
2022-09-23T20:46:39.082Z,101594.25
2022-09-23T20:49:07.954Z,101595.41
2022-09-23T20:51:38.343Z,101586.31
2022-09-23T20:54:06.927Z,101592.81
2022-09-23T20:56:34.138Z,101568.09
2022-09-23T20:59:02.086Z,101587.56
2022-09-23T21:01:29.336Z,101592.78
2022-09-23T21:03:56.695Z,101589.81
2022-09-23T21:06:26.584Z,101588.91
2022-09-23T21:08:54.653Z,101591.19
2022-09-23T21:11:22.049Z,101588.38
2022-09-23T21:13:50.471Z,101581.00
2022-09-23T21:16:19.139Z,101579.47
2022-09-23T21:18:46.867Z,101581.22
2022-09-23T21:21:14.554Z,101591.25
2022-09-23T21:23:43.411Z,101583.88
2022-09-23T21:26:12.151Z,101581.91
2022-09-23T21:28:40.484Z,101593.00
2022-09-23T21:31:28.013Z,101582.38
2022-09-23T21:33:56.487Z,101586.09
2022-09-23T21:36:24.822Z,101583.41
2022-09-23T21:38:52.566Z,101583.88
2022-09-23T21:41:20.265Z,101573.25
2022-09-23T21:43:48.763Z,101575.25
2022-09-23T21:46:20.225Z,101573.50
2022-09-23T21:48:49.945Z,101568.22
2022-09-23T21:51:23.109Z,101568.09
2022-09-23T21:53:50.574Z,101559.53
2022-09-23T21:56:24.894Z,101563.69
2022-09-23T21:58:53.793Z,101562.34
2022-09-23T22:01:21.021Z,101574.53
2022-09-23T22:03:58.350Z,101565.47
2022-09-23T22:06:27.463Z,101569.38
2022-09-23T22:09:01.953Z,101571.22
2022-09-23T22:11:48.964Z,101568.00
2022-09-23T22:14:17.360Z,101563.69
2022-09-23T22:16:44.549Z,101571.97
2022-09-23T22:19:13.658Z,101568.97
2022-09-23T22:21:42.088Z,101568.97
2022-09-23T22:24:10.166Z,101563.06
2022-09-23T22:26:39.161Z,101579.97
2022-09-23T22:29:26.309Z,101568.84
2022-09-23T22:32:12.066Z,101567.59
2022-09-23T22:34:51.415Z,101575.00
2022-09-23T22:37:20.868Z,101567.72
2022-09-23T22:39:48.265Z,101570.09
2022-09-23T22:42:16.173Z,101572.06
2022-09-23T22:44:43.390Z,101565.78
2022-09-23T22:47:10.808Z,101560.03
2022-09-23T22:49:38.017Z,101564.13
2022-09-23T22:52:08.067Z,101558.28
2022-09-23T22:54:36.279Z,101557.31
2022-09-23T22:57:04.039Z,101556.41
2022-09-23T22:59:31.263Z,101554.88
2022-09-23T23:02:03.125Z,101558.56
2022-09-23T23:04:31.053Z,101552.22
2022-09-23T23:07:02.303Z,101559.53
2022-09-23T23:09:29.527Z,101560.09
2022-09-23T23:11:56.704Z,101556.53
2022-09-23T23:14:24.470Z,101557.78
2022-09-23T23:16:51.687Z,101562.66
2022-09-23T23:19:19.266Z,101559.88
2022-09-23T23:21:47.262Z,101559.59
2022-09-23T23:24:16.422Z,101562.94
2022-09-23T23:26:44.015Z,101557.03
2022-09-23T23:29:12.049Z,101558.13
2022-09-23T23:31:39.546Z,101554.19
2022-09-23T23:34:08.427Z,101556.47
2022-09-23T23:36:35.724Z,101559.81
2022-09-23T23:39:02.969Z,101557.66
2022-09-23T23:41:31.413Z,101555.41
2022-09-23T23:43:59.211Z,101549.47
2022-09-23T23:46:28.549Z,101546.03
2022-09-23T23:48:56.919Z,101551.38
2022-09-23T23:51:26.563Z,101547.97
2022-09-23T23:53:54.647Z,101550.91
2022-09-23T23:56:25.299Z,101549.72
2022-09-23T23:58:56.412Z,101550.50
